Time;durP1;ratioP1;P1;durP2;ratioP2;P2;SDS_P1;SDS_P2;PMS_P1;PMS_P2;Temp;Humidity;BMP_temperature;BMP_pressure;BME280_temperature;BME280_humidity;BME280_pressure;Samples;Min_cycle;Max_cycle;Signal;HPM_P1;HPM_P2
2022/06/09 00:00:48;;;;;;;4.40;4.00;;;;;;;22.33;59.03;98866.69;5012899;28;20487;-86
2022/06/09 00:03:18;;;;;;;6.30;4.28;;;;;;;22.25;59.25;98867.22;5013123;28;20099;-86
2022/06/09 00:05:44;;;;;;;7.72;3.88;;;;;;;22.09;59.35;98846.78;5012854;28;20051;-86
2022/06/09 00:08:10;;;;;;;6.07;3.70;;;;;;;21.60;59.52;98804.31;5011585;28;20057;-86
2022/06/09 00:10:41;;;;;;;4.93;4.13;;;;;;;22.17;59.48;98865.06;5012758;28;20030;-86
2022/06/09 00:13:06;;;;;;;4.60;4.10;;;;;;;22.15;59.60;98854.59;5012603;28;20018;-86
2022/06/09 00:15:32;;;;;;;5.25;4.40;;;;;;;21.77;59.60;98798.66;5012428;28;20033;-86
2022/06/09 00:17:58;;;;;;;5.95;4.70;;;;;;;22.15;59.50;98853.78;5012469;28;20022;-86
2022/06/09 00:20:24;;;;;;;5.32;4.07;;;;;;;21.43;59.41;98742.75;5026935;28;20021;-85
2022/06/09 00:22:50;;;;;;;7.25;5.07;;;;;;;22.13;59.69;98856.72;5038139;28;20010;-86
2022/06/09 00:25:15;;;;;;;6.93;4.65;;;;;;;21.98;59.79;98850.53;5031548;28;20423;-86
2022/06/09 00:27:41;;;;;;;5.03;4.60;;;;;;;21.56;59.58;98782.53;5011386;28;20557;-86
2022/06/09 00:30:09;;;;;;;5.35;4.30;;;;;;;22.09;60.01;98850.28;5010968;28;20030;-86
2022/06/09 00:32:35;;;;;;;6.30;4.28;;;;;;;21.87;59.63;98847.84;5011085;28;20108;-86
2022/06/09 00:35:01;;;;;;;5.30;4.18;;;;;;;21.84;59.53;98807.25;5012275;28;20097;-86
2022/06/09 00:37:26;;;;;;;5.15;3.83;;;;;;;22.09;59.57;98844.91;5011312;28;20022;-86
2022/06/09 00:39:52;;;;;;;4.55;4.15;;;;;;;21.45;59.41;98742.47;5012587;28;20021;-86
2022/06/09 00:42:17;;;;;;;4.43;3.97;;;;;;;22.05;59.38;98822.31;5012291;28;20026;-86
2022/06/09 00:44:43;;;;;;;4.03;3.55;;;;;;;22.27;59.54;98845.44;5011036;28;20418;-86
2022/06/09 00:47:30;;;;;;;5.60;4.20;;;;;;;22.25;59.29;98837.63;5010993;28;20499;-86
2022/06/09 00:50:01;;;;;;;5.40;3.97;;;;;;;21.98;59.17;98794.88;5011117;28;20045;-86
2022/06/09 00:52:32;;;;;;;6.10;4.18;;;;;;;21.46;59.12;98739.53;5011143;28;20045;-86
2022/06/09 00:55:05;;;;;;;4.43;3.78;;;;;;;22.21;59.43;98823.13;5010685;28;20068;-86
2022/06/09 00:57:46;;;;;;;5.00;3.90;;;;;;;21.67;59.13;98740.38;5011870;28;20438;-86
2022/06/09 01:00:17;;;;;;;5.28;4.10;;;;;;;22.29;59.06;98816.38;5010693;28;20152;-86
2022/06/09 01:02:44;;;;;;;4.72;4.32;;;;;;;22.28;58.96;98826.34;5010771;28;20392;-86
2022/06/09 01:05:11;;;;;;;5.82;4.40;;;;;;;21.69;59.07;98753.53;5010626;28;20026;-86
2022/06/09 01:07:50;;;;;;;5.15;4.10;;;;;;;21.83;59.07;98773.41;5010720;28;20030;-86
2022/06/09 01:10:17;;;;;;;6.25;4.15;;;;;;;21.92;59.08;98816.66;5011079;28;20026;-86
2022/06/09 01:12:45;;;;;;;6.18;4.63;;;;;;;21.39;59.01;98712.13;5012016;28;20580;-86
2022/06/09 01:15:13;;;;;;;5.10;4.35;;;;;;;22.19;59.20;98833.34;5010622;28;20813;-86
2022/06/09 01:17:50;;;;;;;5.22;3.92;;;;;;;22.19;59.27;98828.75;5011628;28;20064;-86
2022/06/09 01:20:42;;;;;;;4.25;3.80;;;;;;;22.17;59.25;98830.13;5011800;28;20076;-86
2022/06/09 01:23:13;;;;;;;9.25;4.90;;;;;;;22.13;59.04;98820.97;4995277;28;20128;-86
2022/06/09 01:25:42;;;;;;;5.53;3.72;;;;;;;22.11;59.23;98823.94;5010536;28;20580;-86
2022/06/09 01:28:26;;;;;;;7.40;5.25;;;;;;;22.10;59.38;98824.22;5011959;28;20037;-86
2022/06/09 01:31:12;;;;;;;8.57;4.65;;;;;;;21.23;59.55;98702.47;5010382;28;20160;-86
2022/06/09 01:34:02;;;;;;;5.13;4.35;;;;;;;22.01;59.52;98825.78;5013454;28;20079;-86
2022/06/09 01:36:51;;;;;;;7.53;4.18;;;;;;;22.00;59.55;98822.31;5014661;28;20105;-86
2022/06/09 01:39:17;;;;;;;4.25;3.88;;;;;;;21.63;59.68;98759.97;5015740;28;20033;-86
2022/06/09 01:41:47;;;;;;;7.50;5.05;;;;;;;22.06;59.34;98804.31;5014384;28;20431;-86
2022/06/09 01:44:14;;;;;;;8.10;4.20;;;;;;;21.40;59.32;98745.97;5014540;28;20506;-86
2022/06/09 01:46:44;;;;;;;4.90;4.50;;;;;;;21.45;59.58;98774.72;5014408;28;20476;-86
2022/06/09 01:49:17;;;;;;;7.55;4.72;;;;;;;21.76;59.53;98786.31;5014334;28;20033;-86
2022/06/09 01:51:45;;;;;;;5.40;4.90;;;;;;;21.69;59.65;98761.59;5014320;28;20030;-86
2022/06/09 01:54:32;;;;;;;8.27;6.18;;;;;;;22.08;59.40;98816.41;5015324;28;20071;-86
2022/06/09 01:57:06;;;;;;;6.55;5.18;;;;;;;21.80;59.68;98782.81;5014039;28;20116;-86
2022/06/09 01:59:36;;;;;;;6.43;5.55;;;;;;;22.04;59.66;98803.78;5014098;28;20426;-86
2022/06/09 02:02:12;;;;;;;5.73;5.23;;;;;;;21.38;59.52;98707.84;5015268;28;20026;-86
2022/06/09 02:04:44;;;;;;;5.78;5.22;;;;;;;21.55;59.68;98743.31;5014255;28;20530;-86
2022/06/09 02:07:12;;;;;;;7.22;5.60;;;;;;;21.25;59.73;98693.06;5013637;28;20813;-86
2022/06/09 02:09:38;;;;;;;7.57;6.40;;;;;;;21.95;59.79;98813.44;5013791;28;20044;-86
2022/06/09 02:12:09;;;;;;;6.93;5.63;;;;;;;21.75;59.68;98776.63;5015082;28;20025;-86
2022/06/09 02:14:37;;;;;;;8.95;6.50;;;;;;;21.18;59.90;98710.47;5013711;28;20029;-85
2022/06/09 02:17:04;;;;;;;6.97;6.13;;;;;;;21.84;60.01;98805.38;5013765;28;20465;-85
2022/06/09 02:19:30;;;;;;;9.65;6.30;;;;;;;20.62;60.07;98621.84;5015123;28;20129;-85
2022/06/09 02:21:56;;;;;;;8.73;7.05;;;;;;;21.84;60.01;98810.75;5013559;28;20542;-85
2022/06/09 02:24:21;;;;;;;6.68;6.03;;;;;;;21.33;60.15;98739.25;5013525;28;20029;-85
2022/06/09 02:26:46;;;;;;;7.30;6.57;;;;;;;21.25;60.06;98754.03;5014876;28;20037;-85
2022/06/09 02:29:14;;;;;;;7.22;6.18;;;;;;;21.23;60.00;98751.59;5013454;28;20030;-85
2022/06/09 02:31:40;;;;;;;7.85;6.82;;;;;;;21.68;60.23;98838.69;5013372;28;20530;-88
2022/06/09 02:34:06;;;;;;;6.80;6.20;;;;;;;21.06;60.26;98753.69;5014523;28;20061;-87
2022/06/09 02:36:31;;;;;;;9.25;7.45;;;;;;;21.49;60.10;98816.06;5014403;28;20068;-87
2022/06/09 02:38:56;;;;;;;8.02;6.78;;;;;;;21.53;60.02;98820.66;5013139;28;20095;-87
2022/06/09 02:41:22;;;;;;;10.98;7.60;;;;;;;21.40;60.06;98780.88;5013246;28;20057;-87
2022/06/09 02:43:47;;;;;;;7.82;6.85;;;;;;;21.42;60.07;98794.84;5011525;28;20084;-86
2022/06/09 02:46:13;;;;;;;8.30;6.53;;;;;;;21.37;60.25;98792.16;5014131;28;20026;-85
2022/06/09 02:48:38;;;;;;;7.93;7.13;;;;;;;21.38;60.11;98777.66;5014069;28;20159;-85
2022/06/09 02:51:23;;;;;;;7.82;7.07;;;;;;;21.76;60.30;98843.53;5024468;28;20541;-84
2022/06/09 02:53:48;;;;;;;9.75;6.60;;;;;;;21.67;60.20;98838.97;5025182;28;20525;-86
2022/06/09 02:56:14;;;;;;;8.02;7.15;;;;;;;21.24;60.22;98774.69;5028289;28;20081;-85
2022/06/09 02:58:39;;;;;;;7.75;6.25;;;;;;;21.34;60.23;98781.16;5029661;28;20564;-86
2022/06/09 03:01:07;;;;;;;6.75;5.85;;;;;;;21.02;60.30;98738.38;5029312;28;20065;-86
2022/06/09 03:03:32;;;;;;;7.10;5.97;;;;;;;21.16;60.27;98790.47;5028106;28;20033;-86
2022/06/09 03:05:58;;;;;;;6.47;5.85;;;;;;;21.16;60.41;98772.50;5015941;28;20026;-86
2022/06/09 03:08:23;;;;;;;6.65;5.75;;;;;;;21.05;60.10;98759.31;5012709;28;20537;-86
2022/06/09 03:10:49;;;;;;;6.30;5.55;;;;;;;21.08;60.19;98770.34;5012535;28;20025;-87
2022/06/09 03:13:14;;;;;;;6.90;5.55;;;;;;;21.14;60.02;98776.53;5012492;28;20392;-87
2022/06/09 03:15:39;;;;;;;9.00;6.53;;;;;;;21.14;60.07;98792.63;5012566;28;20037;-87
2022/06/09 03:18:05;;;;;;;8.52;6.65;;;;;;;21.31;60.28;98813.91;5012555;28;20418;-87
2022/06/09 03:20:32;;;;;;;6.72;6.10;;;;;;;21.04;60.20;98766.56;5012588;28;20033;-87
2022/06/09 03:22:58;;;;;;;7.45;6.65;;;;;;;21.17;60.16;98795.59;5012415;28;20525;-87
2022/06/09 03:25:23;;;;;;;7.32;6.55;;;;;;;21.08;60.15;98793.69;5012366;28;20109;-85
2022/06/09 03:27:49;;;;;;;9.18;6.22;;;;;;;21.29;60.34;98822.22;5012337;28;20120;-85
2022/06/09 03:30:15;;;;;;;7.72;5.25;;;;;;;20.88;60.21;98738.09;5012390;28;20093;-86
2022/06/09 03:32:41;;;;;;;6.03;5.07;;;;;;;21.69;60.11;98847.56;5012402;28;20026;-87
2022/06/09 03:35:08;;;;;;;8.02;6.10;;;;;;;21.50;60.16;98826.56;5012364;28;20084;-87
2022/06/09 03:37:34;;;;;;;9.75;5.50;;;;;;;21.01;60.16;98751.00;5012186;28;20474;-87
2022/06/09 03:39:59;;;;;;;7.35;5.40;;;;;;;21.31;60.20;98800.47;5012109;28;20026;-86
2022/06/09 03:42:25;;;;;;;6.22;5.63;;;;;;;21.42;59.89;98805.59;5013200;28;20033;-87
2022/06/09 03:44:50;;;;;;;5.32;4.75;;;;;;;21.08;59.92;98740.00;5011816;28;20116;-87
2022/06/09 03:47:15;;;;;;;6.30;5.32;;;;;;;20.98;59.93;98732.72;5011886;28;20036;-87
2022/06/09 03:49:41;;;;;;;6.45;5.28;;;;;;;21.40;59.92;98806.94;5013193;28;20100;-87
2022/06/09 03:52:07;;;;;;;9.32;5.45;;;;;;;21.64;59.95;98818.00;5011987;28;20034;-87
2022/06/09 03:54:33;;;;;;;6.38;4.90;;;;;;;21.24;59.65;98763.16;5012701;28;20060;-87
2022/06/09 03:56:58;;;;;;;6.28;4.82;;;;;;;21.47;59.61;98799.44;5011745;28;20029;-87
2022/06/09 03:59:23;;;;;;;7.47;5.32;;;;;;;21.42;59.71;98808.28;5013524;28;20030;-87
2022/06/09 04:01:49;;;;;;;7.43;5.28;;;;;;;21.54;59.94;98843.75;5013858;28;20021;-87
2022/06/09 04:04:14;;;;;;;6.88;5.78;;;;;;;21.14;59.86;98766.59;5012184;28;20037;-87
2022/06/09 04:06:41;;;;;;;6.35;4.75;;;;;;;21.83;59.80;98857.50;5013324;28;20037;-87
2022/06/09 04:09:06;;;;;;;8.90;5.43;;;;;;;21.72;59.79;98845.16;5013458;28;20116;-87
2022/06/09 04:11:32;;;;;;;9.95;5.75;;;;;;;21.31;59.80;98763.69;5013364;28;20529;-87
2022/06/09 04:13:58;;;;;;;7.90;5.18;;;;;;;21.52;59.88;98786.00;5012093;28;20022;-87
2022/06/09 04:16:32;;;;;;;7.28;5.13;;;;;;;21.92;59.80;98846.22;5011865;28;20084;-87
2022/06/09 04:19:01;;;;;;;6.30;5.20;;;;;;;21.92;59.61;98847.03;5013252;28;20033;-87
2022/06/09 04:21:29;;;;;;;7.28;5.45;;;;;;;21.52;59.82;98773.38;5011779;28;20022;-87
2022/06/09 04:23:55;;;;;;;5.55;5.05;;;;;;;21.09;60.21;98722.81;5011958;28;20109;-86
2022/06/09 04:26:23;;;;;;;6.03;4.85;;;;;;;21.86;60.05;98827.41;5011924;28;20113;-87
2022/06/09 04:28:49;;;;;;;6.40;5.70;;;;;;;21.46;59.83;98776.31;5011391;28;20487;-87
2022/06/09 04:31:14;;;;;;;5.78;5.18;;;;;;;21.71;59.92;98805.91;5011595;28;20037;-87
2022/06/09 04:33:41;;;;;;;10.60;6.13;;;;;;;21.12;59.95;98733.84;5024401;28;20009;-86
2022/06/09 04:36:08;;;;;;;7.40;5.45;;;;;;;21.90;59.87;98835.75;5038344;28;20018;-86
2022/06/09 04:38:35;;;;;;;8.35;5.07;;;;;;;21.19;59.88;98747.00;5038132;28;20056;-86
2022/06/09 04:41:02;;;;;;;6.18;5.30;;;;;;;21.24;59.82;98747.03;5016452;28;20084;-87
2022/06/09 04:43:28;;;;;;;8.55;5.30;;;;;;;21.27;59.72;98743.00;5012051;28;20396;-87
2022/06/09 04:45:54;;;;;;;6.18;5.57;;;;;;;21.38;59.83;98774.16;5012287;28;20091;-87
2022/06/09 04:48:19;;;;;;;5.80;5.30;;;;;;;22.02;59.68;98844.34;5010929;28;20494;-87
2022/06/09 04:50:45;;;;;;;8.32;6.22;;;;;;;21.67;59.58;98777.97;5012004;28;20036;-87
2022/06/09 04:53:10;;;;;;;7.00;5.93;;;;;;;22.23;59.43;98850.53;5011915;28;20028;-87
2022/06/09 04:55:37;;;;;;;9.85;6.25;;;;;;;21.98;58.92;98802.94;5011941;28;20129;-87
2022/06/09 04:58:02;;;;;;;5.85;5.25;;;;;;;22.10;58.93;98821.53;5010810;28;20491;-87
2022/06/09 05:00:30;;;;;;;8.82;6.63;;;;;;;22.30;58.91;98845.72;5010834;28;20030;-87
2022/06/09 05:02:56;;;;;;;9.70;6.10;;;;;;;20.92;58.77;98621.91;5012209;28;20026;-87
2022/06/09 05:05:25;;;;;;;11.55;6.10;;;;;;;22.37;58.88;98851.63;5010742;28;20038;-87
2022/06/09 05:07:51;;;;;;;9.48;6.80;;;;;;;21.83;59.00;98758.09;5010230;28;20462;-87
2022/06/09 05:10:17;;;;;;;8.23;5.80;;;;;;;21.76;58.91;98746.00;5010822;28;20034;-87
2022/06/09 05:12:42;;;;;;;7.78;6.00;;;;;;;22.16;58.99;98805.09;5035704;28;20029;-86
2022/06/09 05:15:12;;;;;;;8.43;6.05;;;;;;;22.60;58.72;98844.03;5036680;28;20026;-86
2022/06/09 05:17:38;;;;;;;12.48;7.05;;;;;;;22.07;58.53;98774.47;5014009;28;20026;-87
2022/06/09 05:20:04;;;;;;;9.85;6.20;;;;;;;22.63;58.38;98862.34;5011327;28;20029;-87
2022/06/09 05:22:29;;;;;;;7.18;6.28;;;;;;;22.15;58.51;98783.88;5012384;28;20091;-87
2022/06/09 05:24:58;;;;;;;6.65;6.03;;;;;;;21.94;58.59;98763.44;5011111;28;20029;-87
2022/06/09 05:27:24;;;;;;;8.95;5.93;;;;;;;22.28;58.35;98793.25;5010700;28;20165;-87
2022/06/09 05:29:49;;;;;;;11.82;6.70;;;;;;;21.95;58.60;98765.84;5010414;28;20116;-86
2022/06/09 05:32:15;;;;;;;6.85;6.18;;;;;;;21.23;58.43;98627.28;5010124;28;20112;-85
2022/06/09 05:34:40;;;;;;;8.43;6.47;;;;;;;22.69;58.42;98861.25;5011689;28;20018;-87
2022/06/09 05:37:05;;;;;;;8.68;6.65;;;;;;;22.57;58.61;98845.41;5011728;28;20025;-87
2022/06/09 05:45:03;;;;;;;8.20;6.43;;;;;;;22.60;58.95;98854.81;5011608;28;20569;-87
2022/06/09 05:47:28;;;;;;;9.30;6.55;;;;;;;22.38;59.03;98822.84;5011134;28;20025;-85
2022/06/09 05:49:54;;;;;;;11.98;8.10;;;;;;;22.09;58.88;98758.06;5010299;28;20033;-85
2022/06/09 05:52:24;;;;;;;11.40;7.18;;;;;;;22.67;58.96;98842.66;5010173;28;20062;-87
2022/06/09 05:54:51;;;;;;;8.87;7.07;;;;;;;22.69;58.96;98850.47;5016217;28;20529;-85
2022/06/09 05:57:18;;;;;;;7.78;6.43;;;;;;;22.77;58.76;98848.03;5028615;28;20037;-86
2022/06/09 05:59:43;;;;;;;9.88;7.57;;;;;;;22.78;58.76;98846.94;5025300;28;20160;-87
2022/06/09 06:02:10;;;;;;;6.88;6.18;;;;;;;22.02;58.64;98738.69;5017583;28;20037;-87
2022/06/09 06:04:36;;;;;;;8.20;6.20;;;;;;;22.44;58.84;98802.94;5030614;28;20036;-86
2022/06/09 06:07:02;;;;;;;8.80;6.53;;;;;;;22.79;58.80;98850.44;5028369;28;20030;-86
2022/06/09 06:09:27;;;;;;;8.02;7.20;;;;;;;22.62;58.67;98831.94;5028037;28;20026;-87
2022/06/09 06:11:53;;;;;;;9.10;7.25;;;;;;;22.47;58.90;98807.75;5027132;28;20063;-86
2022/06/09 06:14:20;;;;;;;9.35;6.70;;;;;;;22.78;59.00;98846.94;5012334;28;20054;-87
2022/06/09 06:16:46;;;;;;;10.88;6.22;;;;;;;22.02;59.08;98726.06;5015144;28;20569;-86
2022/06/09 06:19:16;;;;;;;7.53;6.15;;;;;;;22.63;58.81;98828.16;5019393;28;20037;-87
2022/06/09 06:21:42;;;;;;;8.02;7.00;;;;;;;23.00;58.75;98853.88;5018938;28;20033;-87
2022/06/09 06:24:09;;;;;;;8.48;6.80;;;;;;;22.87;58.49;98824.88;5013615;28;20045;-86
2022/06/09 06:26:35;;;;;;;9.98;7.15;;;;;;;22.96;58.40;98828.59;5014768;28;20103;-86
2022/06/09 06:29:01;;;;;;;10.60;6.45;;;;;;;23.20;57.93;98858.41;5014465;28;20488;-86
2022/06/09 06:31:26;;;;;;;7.85;6.10;;;;;;;22.69;57.70;98767.06;5014848;28;20034;-86
2022/06/09 06:33:52;;;;;;;8.23;7.22;;;;;;;22.72;57.35;98775.38;5023382;28;20083;-86
2022/06/09 06:36:19;;;;;;;10.45;9.35;;;;;;;22.59;57.37;98740.19;5023778;28;20074;-86
2022/06/09 06:38:45;;;;;;;11.98;9.18;;;;;;;23.27;57.33;98845.44;5033006;28;20518;-86
2022/06/09 06:41:12;;;;;;;8.20;6.18;;;;;;;23.41;56.93;98851.81;5034137;28;20108;-85
2022/06/09 06:43:38;;;;;;;8.00;5.68;;;;;;;23.44;56.89;98843.19;5033258;28;20022;-86
2022/06/09 06:46:04;;;;;;;11.13;7.82;;;;;;;22.94;56.74;98752.69;5032827;28;20044;-86
2022/06/09 06:48:30;;;;;;;12.00;8.40;;;;;;;23.61;56.82;98845.53;5033305;28;20025;-84
2022/06/09 06:50:56;;;;;;;16.58;14.68;;;;;;;22.50;56.66;98656.56;5026006;28;20029;-86
2022/06/09 06:53:22;;;;;;;16.30;12.60;;;;;;;23.33;56.43;98791.25;5020562;28;20449;-86
2022/06/09 06:55:47;;;;;;;14.05;12.45;;;;;;;23.18;56.60;98758.22;5043930;28;20049;-85
2022/06/09 06:58:13;;;;;;;12.70;11.45;;;;;;;23.25;56.49;98758.72;5012501;28;20068;-85
2022/06/09 07:00:40;;;;;;;15.93;11.68;;;;;;;23.81;56.20;98848.09;5013838;28;20021;-86
2022/06/09 07:03:09;;;;;;;17.38;15.45;;;;;;;23.43;56.02;98772.31;5030393;28;20025;-86
2022/06/09 07:05:36;;;;;;;15.18;13.43;;;;;;;23.36;55.83;98747.59;5033828;28;20068;-86
2022/06/09 07:08:03;;;;;;;15.60;13.00;;;;;;;23.94;55.82;98831.28;5032392;28;20158;-86
2022/06/09 07:10:31;;;;;;;15.05;12.93;;;;;;;23.56;55.48;98768.22;5031181;28;20100;-86
2022/06/09 07:12:57;;;;;;;14.65;12.30;;;;;;;23.53;55.43;98732.91;5029652;28;20053;-86
2022/06/09 07:15:23;;;;;;;11.52;10.43;;;;;;;24.05;54.92;98819.31;5012652;28;20049;-86
2022/06/09 07:17:48;;;;;;;12.40;11.15;;;;;;;23.62;54.81;98721.28;5012620;28;20053;-86
2022/06/09 07:20:15;;;;;;;12.13;10.90;;;;;;;24.44;54.44;98841.91;5012488;28;20030;-86
2022/06/09 07:22:41;;;;;;;25.92;22.63;;;;;;;23.83;54.34;98738.09;5013451;28;20033;-84
2022/06/09 07:25:09;;;;;;;16.25;14.23;;;;;;;24.20;54.15;98758.22;5024000;28;20464;-84
2022/06/09 07:27:34;;;;;;;14.73;13.10;;;;;;;24.20;53.69;98748.25;5012954;28;20025;-85
2022/06/09 07:30:00;;;;;;;16.10;12.75;;;;;;;23.95;53.96;98735.00;5013468;28;20036;-85
2022/06/09 07:32:26;;;;;;;15.88;13.02;;;;;;;24.44;54.04;98791.44;5019476;28;20017;-85
2022/06/09 07:34:51;;;;;;;16.30;14.55;;;;;;;24.48;53.65;98800.56;5031834;28;20021;-86
2022/06/09 07:37:17;;;;;;;13.38;12.05;;;;;;;23.92;53.55;98706.72;5029631;28;20029;-86
2022/06/09 07:39:42;;;;;;;13.73;11.68;;;;;;;24.83;53.29;98815.56;5011889;28;20032;-86
2022/06/09 07:42:09;;;;;;;13.77;11.80;;;;;;;24.55;52.83;98749.78;5025323;28;20087;-86
2022/06/09 07:44:35;;;;;;;13.93;12.18;;;;;;;24.52;52.93;98701.75;5014555;28;20029;-86
2022/06/09 07:47:00;;;;;;;14.00;12.52;;;;;;;24.64;52.09;98704.84;5016235;28;20108;-85
2022/06/09 07:49:26;;;;;;;12.57;11.38;;;;;;;25.10;52.03;98749.34;5014939;28;20025;-85
2022/06/09 07:51:51;;;;;;;12.70;10.85;;;;;;;25.18;51.73;98779.22;5028533;28;20017;-85
2022/06/09 07:54:17;;;;;;;16.05;13.98;;;;;;;25.24;51.34;98744.81;5023486;28;20546;-85
2022/06/09 07:56:43;;;;;;;14.45;12.65;;;;;;;25.23;50.80;98718.91;5012445;28;20037;-86
2022/06/09 07:59:08;;;;;;;14.20;12.73;;;;;;;25.86;50.67;98800.38;5011615;28;20426;-83
2022/06/09 08:01:35;;;;;;;16.65;15.05;;;;;;;25.93;50.41;98789.97;5014587;28;20037;-85
2022/06/09 08:04:02;;;;;;;16.70;14.63;;;;;;;25.80;50.04;98766.41;5012868;28;20034;-85
2022/06/09 08:06:28;;;;;;;15.57;13.50;;;;;;;25.92;49.71;98769.44;5019138;28;20029;-85
2022/06/09 08:08:55;;;;;;;15.80;12.23;;;;;;;25.98;49.46;98754.72;5019643;28;20460;-85
2022/06/09 08:11:22;;;;;;;13.35;12.05;;;;;;;26.25;49.26;98791.88;5020441;28;20029;-85
2022/06/09 08:13:47;;;;;;;14.38;12.98;;;;;;;25.95;49.28;98730.97;5021316;28;20025;-86
2022/06/09 08:16:14;;;;;;;14.55;12.70;;;;;;;26.20;48.92;98755.97;5017774;28;20472;-85
2022/06/09 08:18:39;;;;;;;13.57;12.18;;;;;;;26.54;48.58;98788.91;5024225;28;20477;-84
2022/06/09 08:21:04;;;;;;;15.80;12.13;;;;;;;26.41;48.46;98762.63;5021843;28;20116;-84
2022/06/09 08:23:30;;;;;;;14.60;12.40;;;;;;;25.90;48.15;98647.22;5029904;28;20025;-84
2022/06/09 08:26:03;;;;;;;14.27;12.82;;;;;;;26.96;47.97;98788.88;5029445;28;20087;-85
2022/06/09 08:28:28;;;;;;;13.60;12.30;;;;;;;26.46;47.67;98696.75;5026815;28;20033;-84
2022/06/09 08:30:55;;;;;;;18.90;17.02;;;;;;;27.20;47.60;98787.56;5014931;28;20574;-85
2022/06/09 08:33:23;;;;;;;15.48;13.98;;;;;;;27.19;47.49;98779.72;5015347;28;20414;-85
2022/06/09 08:35:49;;;;;;;15.40;14.02;;;;;;;26.61;47.40;98707.25;5012961;28;20029;-85
2022/06/09 08:38:15;;;;;;;13.65;12.38;;;;;;;26.95;47.46;98773.75;5013205;28;20057;-85
2022/06/09 08:41:01;;;;;;;16.00;13.35;;;;;;;26.44;46.61;98699.78;5023272;28;20483;-85
2022/06/09 08:43:45;;;;;;;13.57;12.18;;;;;;;26.40;47.13;98652.75;5018237;28;20069;-85
2022/06/09 08:46:18;;;;;;;15.05;12.48;;;;;;;27.30;46.68;98753.19;5017365;28;20038;-85
2022/06/09 08:48:46;;;;;;;16.02;13.52;;;;;;;27.51;46.36;98755.13;5010488;28;20065;-85
2022/06/09 08:51:21;;;;;;;13.45;11.27;;;;;;;27.33;45.90;98715.44;5014498;28;20029;-85
2022/06/09 08:53:54;;;;;;;14.70;13.05;;;;;;;27.26;45.47;98676.31;5045389;28;20024;-85
2022/06/09 08:56:26;;;;;;;12.95;11.80;;;;;;;27.93;45.04;98760.38;5022341;28;20052;-85
2022/06/09 08:59:02;;;;;;;21.55;19.23;;;;;;;27.70;45.00;98687.16;5044575;28;20060;-85
2022/06/09 09:01:35;;;;;;;11.45;10.45;;;;;;;28.01;43.90;98722.44;5027203;28;20057;-85
2022/06/09 09:04:22;;;;;;;10.85;9.98;;;;;;;28.35;43.80;98748.97;5011689;28;20029;-85
2022/06/09 09:07:02;;;;;;;12.05;10.95;;;;;;;28.40;43.63;98742.59;5010203;28;20108;-85
2022/06/09 09:09:31;;;;;;;10.05;9.07;;;;;;;27.82;43.93;98652.13;5027617;28;20026;-82
2022/06/09 09:12:03;;;;;;;9.70;8.80;;;;;;;28.55;43.62;98747.59;5030955;28;20036;-84
2022/06/09 09:14:39;;;;;;;11.65;9.52;;;;;;;28.38;43.39;98691.31;5015953;28;20108;-84
2022/06/09 09:17:10;;;;;;;10.27;8.27;;;;;;;28.90;42.63;98743.06;5027459;28;20441;-84
2022/06/09 09:19:52;;;;;;;;;;;;;;;28.55;42.74;98744.88;5013388;28;20160;-84
2022/06/09 09:22:36;;;;;;;8.30;7.60;;;;;;;28.27;43.13;98735.38;5010349;28;20433;-84
2022/06/09 09:25:26;;;;;;;8.57;7.68;;;;;;;28.53;42.52;98740.88;5011489;28;20105;-84
2022/06/09 09:28:17;;;;;;;8.52;7.88;;;;;;;28.52;42.04;98698.53;5008759;28;20033;-83
2022/06/09 09:31:09;;;;;;;9.63;8.82;;;;;;;28.60;42.12;98730.34;5009420;28;20117;-85
2022/06/09 09:33:35;;;;;;;9.73;8.38;;;;;;;28.15;42.09;98692.47;5018561;28;20047;-84
2022/06/09 09:36:04;;;;;;;10.25;9.25;;;;;;;28.14;42.63;98745.16;5029287;28;20452;-84
2022/06/09 09:38:39;;;;;;;10.23;9.32;;;;;;;27.95;43.41;98739.97;5032357;28;20037;-84
2022/06/09 09:41:05;;;;;;;9.45;8.43;;;;;;;26.29;43.51;98556.63;5024672;28;20418;-83
2022/06/09 09:43:39;;;;;;;10.57;9.60;;;;;;;27.14;44.04;98672.25;5022170;28;20039;-83
2022/06/09 09:46:21;;;;;;;11.05;9.00;;;;;;;27.43;44.70;98745.00;5015264;28;20537;-83
2022/06/09 09:48:48;;;;;;;9.90;9.10;;;;;;;26.70;44.78;98655.91;5040596;28;20026;-84
2022/06/09 09:51:13;;;;;;;9.27;8.23;;;;;;;27.26;45.15;98739.47;5025547;28;20422;-83
2022/06/09 09:53:47;;;;;;;8.93;8.18;;;;;;;27.11;45.08;98747.94;5032476;28;20055;-84
2022/06/09 09:56:16;;;;;;;11.68;10.63;;;;;;;26.99;45.18;98734.13;5053235;28;20476;-84
2022/06/09 09:58:47;;;;;;;12.07;10.88;;;;;;;26.94;46.38;98739.63;5049633;28;20029;-84
2022/06/09 10:01:22;;;;;;;10.02;8.88;;;;;;;26.83;46.89;98747.19;5030203;28;20029;-85
2022/06/09 10:09:41;;;;;;;17.13;13.13;;;;;;;26.10;51.09;98718.28;5013795;28;20513;-86
2022/06/09 10:12:10;;;;;;;15.18;12.38;;;;;;;26.29;51.54;98779.34;5027063;28;20034;-86
2022/06/09 10:14:38;;;;;;;15.35;12.60;;;;;;;26.20;52.64;98761.38;5017957;28;20032;-86
2022/06/09 10:17:21;;;;;;;15.65;13.68;;;;;;;26.06;53.26;98768.69;5019067;28;20026;-87
2022/06/09 10:19:58;;;;;;;16.33;12.82;;;;;;;25.21;53.30;98670.56;5033273;28;20045;-87
2022/06/09 10:22:27;;;;;;;14.40;12.45;;;;;;;25.79;54.25;98759.38;5020142;28;20052;-87
2022/06/09 10:25:04;;;;;;;15.02;13.57;;;;;;;25.60;54.80;98755.91;5019005;28;20104;-86
2022/06/09 10:27:37;;;;;;;17.58;15.23;;;;;;;24.36;55.56;98576.22;5017281;28;20026;-86
2022/06/09 10:30:15;;;;;;;16.95;14.30;;;;;;;25.48;56.31;98777.19;5013632;28;20022;-86
2022/06/09 10:32:41;;;;;;;19.05;17.20;;;;;;;25.26;56.79;98778.56;5030325;28;20022;-87
2022/06/09 10:35:26;;;;;;;19.92;18.13;;;;;;;25.12;57.86;98780.38;5012893;28;20076;-86
2022/06/09 10:37:59;;;;;;;19.52;17.70;;;;;;;24.87;59.10;98783.41;5013406;28;20111;-87
2022/06/09 10:40:40;;;;;;;19.23;17.27;;;;;;;24.70;59.95;98776.59;5015714;28;20120;-87
2022/06/09 10:43:11;;;;;;;19.38;17.58;;;;;;;24.51;60.38;98767.59;5025785;28;20021;-86
2022/06/09 10:46:17;;;;;;;19.27;17.40;;;;;;;24.16;61.65;98706.75;5016077;28;20026;-88
2022/06/09 10:55:37;;;;;;;21.10;19.00;;;;;;;23.98;63.10;98648.97;5015848;28;20060;-90
2022/06/09 10:58:15;;;;;;;19.85;17.65;;;;;;;24.34;62.50;98699.81;5019485;28;20026;-88
2022/06/09 11:00:50;;;;;;;21.50;19.40;;;;;;;23.58;63.46;98608.94;5025999;28;20069;-87
2022/06/09 11:03:17;;;;;;;17.58;15.95;;;;;;;24.07;63.10;98670.69;5019113;28;20037;-88
2022/06/09 11:05:52;;;;;;;18.52;16.67;;;;;;;24.08;63.11;98653.44;5031686;28;20033;-87
2022/06/09 11:08:33;;;;;;;19.92;17.92;;;;;;;24.33;62.41;98642.34;5029554;28;20027;-87
2022/06/09 11:11:26;;;;;;;16.33;14.80;;;;;;;24.48;60.91;98617.06;5023889;28;20575;-87
2022/06/09 11:13:57;;;;;;;14.65;13.43;;;;;;;24.18;59.87;98507.66;5020368;28;20461;-86
2022/06/09 11:16:33;;;;;;;13.70;12.30;;;;;;;25.45;58.43;98635.31;5012358;28;20037;-86
2022/06/09 11:19:34;;;;;;;12.18;10.95;;;;;;;25.97;57.21;98598.13;5022053;28;20041;-86
2022/06/09 11:22:53;;;;;;;10.05;9.15;;;;;;;25.56;50.35;98435.91;5042038;28;20039;-86
2022/06/09 11:25:25;;;;;;;8.82;8.02;;;;;;;27.45;51.77;98647.91;4992330;28;20096;-83
2022/06/09 11:28:18;;;;;;;9.80;8.80;;;;;;;27.98;51.43;98651.69;5024527;28;20037;-85
2022/06/09 11:31:02;;;;;;;7.60;6.93;;;;;;;28.10;48.51;98663.56;5017392;28;20036;-85
2022/06/09 11:34:05;;;;;;;11.02;10.02;;;;;;;27.74;49.18;98669.16;5025917;28;20092;-83
2022/06/09 11:36:36;;;;;;;5.70;5.20;;;;;;;27.20;49.50;98664.78;5015333;28;20108;-84
2022/06/09 11:39:46;;;;;;;5.45;4.95;;;;;;;27.28;48.31;98657.84;5028545;28;20462;-83
2022/06/09 11:42:30;;;;;;;5.85;5.35;;;;;;;27.37;48.61;98664.09;5012460;28;20423;-84
2022/06/09 11:44:58;;;;;;;6.82;5.15;;;;;;;27.39;47.97;98599.53;5034698;28;20046;-84
2022/06/09 11:47:31;;;;;;;5.97;5.30;;;;;;;27.47;47.07;98572.47;5049595;28;20409;-84
2022/06/09 11:50:08;;;;;;;4.95;4.45;;;;;;;28.08;45.52;98646.78;5044830;28;20418;-84
2022/06/09 11:52:47;;;;;;;5.30;4.50;;;;;;;27.83;45.13;98661.84;5023565;28;20091;-83
2022/06/09 11:58:40;;;;;;;6.68;6.07;;;;;;;27.28;46.84;98655.13;5016078;28;20525;-83
2022/06/09 12:01:33;;;;;;;6.78;6.28;;;;;;;27.19;47.17;98646.94;5022798;28;20045;-83
2022/06/09 12:04:12;;;;;;;7.00;6.30;;;;;;;27.44;47.31;98642.78;5017806;28;20033;-82